createdAt,value
2022-09-06T00:02:34.100Z,1.67
2022-09-06T00:05:19.389Z,1.70
2022-09-06T00:08:06.320Z,1.88
2022-09-06T00:11:01.071Z,1.77
2022-09-06T00:13:47.555Z,2.33
2022-09-06T00:16:33.086Z,2.17
2022-09-06T00:19:18.043Z,1.50
2022-09-06T00:22:03.598Z,1.50
2022-09-06T00:24:48.760Z,1.45
2022-09-06T00:27:34.849Z,1.67
2022-09-06T00:30:20.491Z,1.77
2022-09-06T00:33:05.855Z,1.58
2022-09-06T00:40:35.783Z,1.67
2022-09-06T00:43:21.328Z,1.50
2022-09-06T00:46:08.624Z,1.60
2022-09-06T00:49:00.711Z,2.00
2022-09-06T00:51:46.373Z,1.42
2022-09-06T00:54:36.917Z,1.58
2022-09-06T00:57:27.025Z,1.42
2022-09-06T01:00:18.418Z,1.13
2022-09-06T01:07:07.885Z,1.52
2022-09-06T01:10:42.624Z,1.33
2022-09-06T01:13:59.652Z,1.50
2022-09-06T01:16:56.442Z,1.02
2022-09-06T01:20:10.838Z,1.55
2022-09-06T01:23:58.102Z,1.40
2022-09-06T01:26:57.671Z,1.20
2022-09-06T01:29:52.835Z,1.35
2022-09-06T01:33:01.200Z,1.05
2022-09-06T01:35:51.896Z,1.50
2022-09-06T01:38:37.472Z,1.30
2022-09-06T01:41:22.761Z,1.13
2022-09-06T01:44:07.903Z,1.17
2022-09-06T01:47:08.133Z,1.27
2022-09-06T01:50:44.146Z,1.88
2022-09-06T01:53:56.715Z,1.33
2022-09-06T01:57:08.794Z,2.40
2022-09-06T02:00:10.930Z,1.48
2022-09-06T02:03:19.312Z,1.60
2022-09-06T02:06:13.422Z,1.20
2022-09-06T02:09:08.938Z,1.40
2022-09-06T02:11:58.485Z,1.42
2022-09-06T02:14:52.045Z,1.65
2022-09-06T02:17:42.230Z,1.02
2022-09-06T02:20:32.159Z,1.10
2022-09-06T02:26:32.781Z,1.40
2022-09-06T02:29:18.615Z,1.17
2022-09-06T02:32:26.287Z,1.27
2022-09-06T02:35:16.621Z,1.25
2022-09-06T02:38:02.265Z,1.30
2022-09-06T02:40:50.066Z,1.45
2022-09-06T02:43:35.749Z,1.38
2022-09-06T02:46:21.211Z,1.30
2022-09-06T02:49:06.836Z,1.25
2022-09-06T02:51:52.019Z,1.30
2022-09-06T02:54:37.464Z,1.50
2022-09-06T02:57:23.170Z,1.30
2022-09-06T03:00:08.912Z,1.00
2022-09-06T03:02:54.495Z,1.40
2022-09-06T03:05:39.977Z,1.38
2022-09-06T03:08:26.454Z,1.35
2022-09-06T03:11:11.838Z,1.40
2022-09-06T03:13:57.143Z,1.40
2022-09-06T03:16:42.806Z,1.25
2022-09-06T03:19:28.354Z,1.27
2022-09-06T03:22:13.796Z,1.30
2022-09-06T03:24:59.020Z,1.45
2022-09-06T03:27:44.323Z,1.58
2022-09-06T03:30:29.934Z,1.30
2022-09-06T03:33:15.692Z,1.23
2022-09-06T03:36:03.054Z,1.50
2022-09-06T03:38:48.509Z,1.63
2022-09-06T03:41:33.865Z,1.50
2022-09-06T03:44:19.178Z,1.40
2022-09-06T03:47:04.666Z,1.55
2022-09-06T03:49:49.750Z,1.45
2022-09-06T03:52:35.028Z,1.58
2022-09-06T03:55:20.179Z,1.65
2022-09-06T03:58:05.665Z,1.98
2022-09-06T04:01:04.799Z,5.63
2022-09-06T04:03:51.529Z,1.50
2022-09-06T04:06:36.838Z,1.42
2022-09-06T04:09:22.073Z,1.90
2022-09-06T04:12:07.554Z,1.30
2022-09-06T04:14:52.961Z,1.42
2022-09-06T04:17:38.610Z,1.30
2022-09-06T04:20:23.836Z,1.65
2022-09-06T04:23:09.297Z,1.30
2022-09-06T04:25:56.806Z,1.73
2022-09-06T04:28:42.190Z,1.45
2022-09-06T04:31:27.590Z,1.63
2022-09-06T04:34:12.719Z,2.00
2022-09-06T04:36:58.402Z,1.65
2022-09-06T04:39:44.253Z,1.58
2022-09-06T04:42:29.747Z,1.30
2022-09-06T04:45:15.142Z,1.60
2022-09-06T04:48:00.410Z,1.13
2022-09-06T04:50:46.086Z,1.80
2022-09-06T04:53:31.162Z,1.55
2022-09-06T04:56:21.944Z,1.63
2022-09-06T04:59:07.444Z,1.50
2022-09-06T05:01:52.892Z,1.77
2022-09-06T05:04:37.957Z,1.63
2022-09-06T05:07:23.274Z,1.67
2022-09-06T05:10:08.777Z,1.83
2022-09-06T05:12:54.840Z,1.75
2022-09-06T05:15:40.516Z,2.95
2022-09-06T05:18:25.936Z,1.67
2022-09-06T05:21:11.331Z,1.90
2022-09-06T05:23:58.643Z,1.80
2022-09-06T05:26:44.451Z,1.50
2022-09-06T05:29:30.686Z,1.80
2022-09-06T05:32:16.010Z,1.70
2022-09-06T05:35:01.218Z,1.52
2022-09-06T05:37:46.373Z,1.75
2022-09-06T05:40:31.948Z,1.77
2022-09-06T05:43:17.217Z,1.50
2022-09-06T05:46:02.578Z,1.85
2022-09-06T05:49:07.803Z,1.40
2022-09-06T05:51:53.030Z,1.75
2022-09-06T05:54:38.718Z,1.38
2022-09-06T05:57:23.911Z,1.60
2022-09-06T06:00:12.032Z,1.55
2022-09-06T06:02:57.530Z,1.70
2022-09-06T06:05:47.576Z,1.98
2022-09-06T06:08:33.153Z,1.60
2022-09-06T06:11:19.079Z,1.83
2022-09-06T06:14:04.966Z,1.55
2022-09-06T06:16:52.824Z,1.73
2022-09-06T06:19:38.394Z,1.95
2022-09-06T06:22:26.923Z,1.40
2022-09-06T06:25:12.701Z,1.83
2022-09-06T06:27:58.140Z,1.70
2022-09-06T06:30:49.963Z,1.73
2022-09-06T06:33:36.298Z,1.25
2022-09-06T06:36:24.365Z,2.03
2022-09-06T06:39:09.817Z,1.50
2022-09-06T06:41:55.592Z,1.50
2022-09-06T06:45:00.228Z,1.63
2022-09-06T06:47:50.040Z,1.80
2022-09-06T06:53:20.432Z,1.55
2022-09-06T06:56:27.637Z,1.60
2022-09-06T06:59:13.223Z,1.50
2022-09-06T07:01:58.687Z,1.92
2022-09-06T07:04:44.227Z,1.55
2022-09-06T07:10:35.622Z,2.03
2022-09-06T07:13:21.167Z,2.08
2022-09-06T07:16:08.882Z,1.80
2022-09-06T07:18:54.583Z,2.08
2022-09-06T07:21:39.820Z,1.80
2022-09-06T07:24:25.585Z,2.10
2022-09-06T07:30:16.454Z,2.22
2022-09-06T07:33:01.702Z,1.90
2022-09-06T07:36:01.519Z,2.28
2022-09-06T07:38:51.387Z,2.03
2022-09-06T07:41:36.947Z,2.30
2022-09-06T07:44:22.053Z,2.10
2022-09-06T07:53:30.800Z,2.13
2022-09-06T07:56:16.777Z,2.10
2022-09-06T07:59:02.109Z,2.38
2022-09-06T08:01:48.209Z,2.20
2022-09-06T08:04:33.470Z,2.70
2022-09-06T08:10:24.126Z,2.60
2022-09-06T08:13:09.251Z,2.53
2022-09-06T08:16:00.297Z,2.40
2022-09-06T08:18:56.564Z,2.47
2022-09-06T08:21:41.796Z,2.33
2022-09-06T08:24:27.364Z,3.05
2022-09-06T08:27:12.672Z,2.75
2022-09-06T08:29:57.728Z,2.67
2022-09-06T08:32:43.322Z,2.63
2022-09-06T08:35:28.847Z,2.50
2022-09-06T08:38:14.328Z,2.70
2022-09-06T08:41:10.293Z,2.92
2022-09-06T08:47:10.613Z,3.05
2022-09-06T08:50:02.656Z,2.60
2022-09-06T08:53:18.461Z,2.42
2022-09-06T08:56:17.023Z,2.95
2022-09-06T08:59:06.815Z,2.80
2022-09-06T09:02:11.275Z,2.70
2022-09-06T09:05:01.438Z,2.90
2022-09-06T09:08:00.189Z,2.72
2022-09-06T09:10:49.865Z,3.55
2022-09-06T09:13:47.253Z,2.60
2022-09-06T09:16:33.023Z,2.30
2022-09-06T09:19:18.654Z,2.88
2022-09-06T09:22:04.385Z,2.80
2022-09-06T09:24:51.808Z,2.45
2022-09-06T09:27:37.562Z,3.25
2022-09-06T09:33:35.647Z,2.50
2022-09-06T09:36:21.520Z,2.33
2022-09-06T09:39:11.643Z,2.38
2022-09-06T09:41:57.135Z,2.50
2022-09-06T09:44:44.260Z,3.00
2022-09-06T09:47:31.721Z,3.33
2022-09-06T09:50:27.386Z,2.50
2022-09-06T09:53:15.101Z,2.60
2022-09-06T09:56:00.748Z,2.90
2022-09-06T09:58:46.343Z,3.20
2022-09-06T10:01:35.717Z,2.78
2022-09-06T10:04:46.870Z,2.75
2022-09-06T10:07:34.321Z,2.45
2022-09-06T10:10:37.053Z,2.60
2022-09-06T10:13:26.591Z,3.42
2022-09-06T10:16:13.172Z,3.17
2022-09-06T10:18:59.028Z,3.25
2022-09-06T10:21:45.307Z,2.67
2022-09-06T10:25:08.848Z,4.28
2022-09-06T10:28:11.456Z,3.50
2022-09-06T10:31:09.455Z,3.20
2022-09-06T10:34:19.789Z,3.25
2022-09-06T10:37:13.326Z,3.70
2022-09-06T10:40:10.624Z,4.65
2022-09-06T10:42:59.261Z,3.47
2022-09-06T10:45:58.271Z,3.88
2022-09-06T10:48:48.149Z,3.25
2022-09-06T10:51:41.944Z,3.83
2022-09-06T10:54:33.551Z,3.53
2022-09-06T11:00:38.014Z,3.65
2022-09-06T11:06:45.459Z,3.58
2022-09-06T11:09:54.925Z,3.20
2022-09-06T11:13:15.702Z,3.42
2022-09-06T11:16:13.524Z,3.42
2022-09-06T11:19:06.075Z,3.90
2022-09-06T11:22:29.872Z,4.07
2022-09-06T11:25:27.288Z,3.80
2022-09-06T11:28:40.002Z,4.30
2022-09-06T11:34:41.174Z,3.72
2022-09-06T11:37:36.459Z,3.53
2022-09-06T11:40:43.685Z,3.50
2022-09-06T11:43:47.239Z,3.85
2022-09-06T11:46:35.817Z,4.10
2022-09-06T11:49:30.862Z,3.67
2022-09-06T11:52:54.041Z,3.55
2022-09-06T11:55:45.955Z,3.83
2022-09-06T11:58:40.320Z,4.88
2022-09-06T12:01:25.390Z,3.58
2022-09-06T12:04:10.921Z,3.30
2022-09-06T12:07:11.628Z,3.78
2022-09-06T12:09:57.399Z,3.47
2022-09-06T12:12:50.821Z,3.83
2022-09-06T12:15:51.902Z,3.85
2022-09-06T12:18:43.326Z,3.67
2022-09-06T12:21:40.123Z,4.07
2022-09-06T12:24:34.665Z,3.90
2022-09-06T12:27:22.427Z,4.57
2022-09-06T12:30:12.130Z,3.80
2022-09-06T12:33:00.212Z,3.95
2022-09-06T12:36:03.448Z,4.20
2022-09-06T12:39:14.529Z,3.67
2022-09-06T12:42:12.589Z,3.90
2022-09-06T12:45:00.331Z,3.85
2022-09-06T12:47:45.783Z,4.20
2022-09-06T12:50:31.593Z,3.40
2022-09-06T12:53:24.701Z,3.70
2022-09-06T12:56:12.762Z,3.33
2022-09-06T12:59:33.957Z,3.80
2022-09-06T13:02:41.107Z,5.75
2022-09-06T13:05:27.347Z,3.83
2022-09-06T13:08:33.702Z,4.32
2022-09-06T13:11:27.489Z,4.20
2022-09-06T13:14:19.369Z,3.83
2022-09-06T13:17:04.828Z,3.63
2022-09-06T13:19:50.641Z,3.35
2022-09-06T13:22:44.876Z,3.72
2022-09-06T13:25:33.589Z,3.78
2022-09-06T13:28:27.875Z,3.60
2022-09-06T13:31:21.719Z,4.25
2022-09-06T13:34:07.519Z,4.07
2022-09-06T13:37:02.048Z,4.72
2022-09-06T13:39:47.625Z,3.78
2022-09-06T13:42:38.174Z,5.75
2022-09-06T13:45:31.714Z,4.10
2022-09-06T13:48:28.770Z,4.28
2022-09-06T13:51:23.112Z,4.10
2022-09-06T13:54:15.491Z,4.18
2022-09-06T13:57:03.854Z,4.10
2022-09-06T13:59:49.230Z,3.83
2022-09-06T14:02:34.850Z,4.88
2022-09-06T14:05:19.853Z,3.78
2022-09-06T14:08:05.233Z,4.07
2022-09-06T14:10:51.552Z,4.13
2022-09-06T14:13:36.874Z,4.43
2022-09-06T14:16:22.371Z,4.63
2022-09-06T14:19:07.638Z,3.92
2022-09-06T14:21:52.847Z,3.80
2022-09-06T14:24:38.488Z,4.43
2022-09-06T14:27:23.999Z,4.15
2022-09-06T14:30:10.382Z,3.90
2022-09-06T14:32:56.301Z,4.30
2022-09-06T14:35:42.268Z,3.85
2022-09-06T14:38:28.025Z,3.97
2022-09-06T14:41:15.113Z,3.60
2022-09-06T14:44:01.762Z,4.53
2022-09-06T14:46:48.991Z,3.88
2022-09-06T14:49:34.203Z,4.47
2022-09-06T14:52:19.830Z,4.22
2022-09-06T14:55:05.850Z,4.15
2022-09-06T14:57:51.079Z,4.00
2022-09-06T15:00:36.637Z,4.20
2022-09-06T15:03:22.013Z,4.13
2022-09-06T15:06:09.410Z,3.90
2022-09-06T15:08:59.203Z,4.32
2022-09-06T15:11:54.127Z,4.28
2022-09-06T15:14:40.981Z,4.88
2022-09-06T15:17:26.234Z,4.30
2022-09-06T15:20:11.859Z,3.75
2022-09-06T15:23:21.677Z,4.03
2022-09-06T15:26:03.173Z,4.25
2022-09-06T15:28:48.895Z,4.28
2022-09-06T15:31:34.631Z,4.55
2022-09-06T15:34:22.249Z,4.53
2022-09-06T15:37:07.654Z,5.00
2022-09-06T15:39:53.578Z,3.85
2022-09-06T15:42:39.475Z,4.30
2022-09-06T15:45:24.943Z,4.50
2022-09-06T15:48:10.127Z,4.65
2022-09-06T15:50:55.346Z,4.65
2022-09-06T15:53:40.781Z,4.13
2022-09-06T15:56:25.843Z,4.20
2022-09-06T15:59:11.881Z,5.00
2022-09-06T16:01:57.596Z,4.40
2022-09-06T16:04:43.219Z,3.70
2022-09-06T16:07:29.191Z,4.32
2022-09-06T16:10:15.266Z,4.15
2022-09-06T16:13:00.377Z,4.55
2022-09-06T16:15:56.305Z,3.92
2022-09-06T16:18:44.490Z,4.40
2022-09-06T16:21:32.446Z,3.92
2022-09-06T16:24:18.569Z,3.90
2022-09-06T16:27:04.164Z,4.25
2022-09-06T16:29:49.486Z,4.35
2022-09-06T16:32:34.701Z,4.28
2022-09-06T16:35:19.914Z,4.18
2022-09-06T16:38:08.940Z,4.20
2022-09-06T16:40:55.089Z,4.53
2022-09-06T16:43:40.489Z,4.18
2022-09-06T16:46:28.724Z,4.05
2022-09-06T16:49:16.727Z,4.07
2022-09-06T16:52:02.458Z,4.82
2022-09-06T16:54:47.604Z,3.35
2022-09-06T16:57:33.429Z,3.53
2022-09-06T17:00:19.502Z,3.67
2022-09-06T17:03:05.122Z,4.50
2022-09-06T17:05:52.005Z,3.58
2022-09-06T17:08:37.373Z,4.03
2022-09-06T17:11:23.247Z,4.20
2022-09-06T17:14:08.955Z,4.15
2022-09-06T17:17:06.937Z,3.85
2022-09-06T17:19:52.524Z,4.00
2022-09-06T17:22:37.791Z,3.80
2022-09-06T17:25:23.224Z,4.25
2022-09-06T17:28:08.539Z,3.88
2022-09-06T17:30:54.009Z,3.97
2022-09-06T17:33:39.974Z,4.65
2022-09-06T17:36:30.358Z,4.30
2022-09-06T17:39:18.245Z,4.20
2022-09-06T17:42:04.302Z,4.20
2022-09-06T17:44:49.302Z,4.20
2022-09-06T17:47:35.221Z,4.68
2022-09-06T17:50:20.867Z,4.38
2022-09-06T17:53:05.944Z,4.90
2022-09-06T17:55:52.217Z,4.40
2022-09-06T17:58:38.378Z,4.53
2022-09-06T18:01:26.026Z,3.92
2022-09-06T18:04:12.295Z,3.85
2022-09-06T18:06:57.510Z,4.10
2022-09-06T18:09:42.715Z,4.63
2022-09-06T18:12:29.489Z,4.05
2022-09-06T18:15:14.753Z,3.95
2022-09-06T18:18:00.394Z,4.28
2022-09-06T18:20:45.523Z,4.18
2022-09-06T18:23:31.575Z,3.53
2022-09-06T18:26:17.337Z,3.63
2022-09-06T18:29:05.373Z,4.68
2022-09-06T18:31:53.647Z,3.72
2022-09-06T18:34:39.491Z,3.70
2022-09-06T18:37:25.140Z,3.63
2022-09-06T18:40:10.758Z,3.67
2022-09-06T18:42:56.289Z,4.05
2022-09-06T18:45:42.532Z,3.72
2022-09-06T18:48:28.744Z,3.58
2022-09-06T18:51:16.230Z,3.58
2022-09-06T18:54:02.080Z,3.50
2022-09-06T18:56:52.658Z,4.53
2022-09-06T18:59:38.010Z,3.55
2022-09-06T19:02:23.569Z,4.18
2022-09-06T19:05:09.146Z,4.07
2022-09-06T19:07:54.333Z,3.78
2022-09-06T19:10:39.532Z,4.00
2022-09-06T19:13:24.780Z,3.63
2022-09-06T19:16:12.035Z,3.92
2022-09-06T19:19:05.852Z,3.65
2022-09-06T19:21:51.454Z,3.70
2022-09-06T19:24:39.118Z,3.58
2022-09-06T19:27:24.615Z,4.35
2022-09-06T19:30:10.321Z,3.90
2022-09-06T19:32:55.905Z,3.78
2022-09-06T19:36:00.997Z,3.35
2022-09-06T19:39:02.685Z,3.58
2022-09-06T19:41:49.437Z,3.78
2022-09-06T19:44:34.680Z,4.00
2022-09-06T19:47:19.959Z,3.45
2022-09-06T19:50:06.598Z,3.67
2022-09-06T19:52:51.873Z,3.85
2022-09-06T19:55:37.316Z,3.55
2022-09-06T19:58:24.635Z,3.53
2022-09-06T20:01:11.748Z,4.05
2022-09-06T20:03:58.431Z,4.00
2022-09-06T20:06:43.667Z,3.50
2022-09-06T20:09:28.937Z,3.53
2022-09-06T20:12:14.508Z,3.47
2022-09-06T20:14:59.774Z,3.75
2022-09-06T20:17:45.383Z,3.42
2022-09-06T20:20:32.614Z,3.25
2022-09-06T20:23:18.213Z,3.97
2022-09-06T20:26:06.057Z,3.83
2022-09-06T20:28:58.903Z,3.50
2022-09-06T20:31:43.991Z,3.72
2022-09-06T20:34:30.530Z,3.08
2022-09-06T20:37:15.770Z,3.22
2022-09-06T20:40:01.286Z,3.33
2022-09-06T20:42:46.630Z,3.22
2022-09-06T20:45:32.427Z,3.50
2022-09-06T20:48:17.468Z,3.40
2022-09-06T20:51:06.811Z,3.20
2022-09-06T20:53:58.879Z,3.22
2022-09-06T20:56:44.152Z,3.45
2022-09-06T20:59:29.562Z,3.63
2022-09-06T21:02:15.941Z,3.08
2022-09-06T21:05:01.162Z,2.92
2022-09-06T21:07:46.593Z,3.15
2022-09-06T21:10:31.968Z,3.30
2022-09-06T21:13:17.045Z,2.83
2022-09-06T21:16:03.728Z,3.70
2022-09-06T21:18:53.906Z,2.60
2022-09-06T21:21:39.746Z,2.72
2022-09-06T21:24:25.269Z,3.13
2022-09-06T21:27:12.082Z,2.95
2022-09-06T21:29:57.335Z,2.75
2022-09-06T21:32:42.611Z,3.22
2022-09-06T21:35:28.138Z,2.97
2022-09-06T21:38:13.400Z,2.90
2022-09-06T21:40:58.690Z,2.83
2022-09-06T21:43:44.767Z,2.92
2022-09-06T21:46:34.432Z,2.72
2022-09-06T21:49:19.983Z,2.92
2022-09-06T21:52:05.470Z,3.50
2022-09-06T21:54:50.602Z,2.55
2022-09-06T21:57:36.154Z,3.25
2022-09-06T22:00:21.353Z,3.47
2022-09-06T22:03:07.328Z,2.78
2022-09-06T22:05:52.531Z,2.67
2022-09-06T22:08:38.353Z,2.72
2022-09-06T22:11:26.558Z,2.97
2022-09-06T22:14:14.286Z,2.88
2022-09-06T22:16:59.803Z,2.95
2022-09-06T22:19:45.177Z,2.47
2022-09-06T22:22:31.099Z,3.05
2022-09-06T22:25:16.764Z,2.75
2022-09-06T22:28:02.537Z,2.75
2022-09-06T22:30:47.955Z,2.47
2022-09-06T22:33:34.676Z,2.58
2022-09-06T22:36:20.618Z,3.30
2022-09-06T22:39:06.122Z,2.88
2022-09-06T22:41:52.045Z,2.85
2022-09-06T22:44:37.379Z,2.55
2022-09-06T22:47:22.914Z,2.90
2022-09-06T22:50:09.274Z,2.47
2022-09-06T22:52:54.741Z,2.25
2022-09-06T22:55:40.233Z,2.15
2022-09-06T22:58:28.840Z,2.75
2022-09-06T23:01:15.689Z,2.30
2022-09-06T23:04:01.250Z,2.60
2022-09-06T23:06:46.533Z,2.65
2022-09-06T23:09:31.678Z,2.50
2022-09-06T23:12:16.914Z,2.70
2022-09-06T23:15:02.071Z,2.75
2022-09-06T23:17:47.363Z,2.00
2022-09-06T23:20:32.662Z,2.70
2022-09-06T23:23:17.776Z,2.88
2022-09-06T23:26:08.158Z,2.38
2022-09-06T23:29:00.197Z,2.65
2022-09-06T23:31:45.307Z,2.67
2022-09-06T23:34:30.870Z,2.03
2022-09-06T23:37:16.271Z,2.60
2022-09-06T23:40:03.009Z,2.22
2022-09-06T23:42:51.172Z,3.00
2022-09-06T23:45:36.453Z,2.47
2022-09-06T23:48:22.274Z,2.17
2022-09-06T23:51:07.986Z,2.25
2022-09-06T23:53:53.484Z,2.30
2022-09-06T23:56:38.637Z,2.85
2022-09-06T23:59:23.945Z,2.40
